createdAt,value
2018-10-12T00:02:21.853Z,98004.54
2018-10-12T00:04:52.073Z,98004.00
2018-10-12T00:07:21.999Z,98003.69
2018-10-12T00:09:52.005Z,98004.47
2018-10-12T00:12:21.852Z,98002.08
2018-10-12T00:14:51.745Z,98008.55
2018-10-12T00:17:21.442Z,98012.81
2018-10-12T00:19:51.353Z,98016.59
2018-10-12T00:22:21.108Z,98020.06
2018-10-12T00:24:51.573Z,98023.82
2018-10-12T00:27:21.360Z,98019.50
2018-10-12T00:29:51.075Z,98026.20
2018-10-12T00:32:20.745Z,98022.46
2018-10-12T00:34:50.382Z,98015.80
2018-10-12T00:37:20.038Z,98014.44
2018-10-12T00:39:49.716Z,98016.55
2018-10-12T00:42:19.189Z,98015.22
2018-10-12T00:44:48.625Z,98013.06
2018-10-12T00:47:18.210Z,98004.73
2018-10-12T00:49:47.708Z,98020.05
2018-10-12T00:52:17.016Z,98020.88
2018-10-12T00:54:46.378Z,98019.80
2018-10-12T00:57:15.812Z,98016.03
2018-10-12T00:59:45.227Z,98022.09
2018-10-12T01:02:14.548Z,98026.68
2018-10-12T01:04:43.863Z,98032.86
2018-10-12T01:07:13.755Z,98039.07
2018-10-12T01:09:43.381Z,98038.82
2018-10-12T01:12:35.448Z,98036.41
2018-10-12T01:15:05.211Z,98057.08
2018-10-12T01:17:35.217Z,98058.44
2018-10-12T01:20:05.529Z,98053.59
2018-10-12T01:22:35.118Z,98055.46
2018-10-12T01:25:06.409Z,98052.78
2018-10-12T01:27:35.776Z,98055.98
2018-10-12T01:30:06.100Z,98065.89
2018-10-12T01:32:40.589Z,98066.67
2018-10-12T01:35:10.276Z,98059.42
2018-10-12T01:37:39.794Z,98057.00
2018-10-12T01:40:09.056Z,98058.83
2018-10-12T01:42:38.394Z,98058.20
2018-10-12T01:45:07.746Z,98059.52
2018-10-12T01:47:37.171Z,98058.39
2018-10-12T01:50:06.458Z,98063.97
2018-10-12T01:52:35.766Z,98072.24
2018-10-12T01:55:05.058Z,98073.52
2018-10-12T01:57:34.371Z,98080.69
2018-10-12T02:00:03.774Z,98078.97
2018-10-12T02:02:33.102Z,98079.45
2018-10-12T02:05:02.370Z,98087.77
2018-10-12T02:07:31.730Z,98083.38
2018-10-12T02:10:01.116Z,98088.95
2018-10-12T02:12:30.545Z,98090.53
2018-10-12T02:14:59.943Z,98084.89
2018-10-12T02:17:29.387Z,98092.95
2018-10-12T02:19:58.781Z,98091.44
2018-10-12T02:22:28.176Z,98098.64
2018-10-12T02:24:57.758Z,98099.41
2018-10-12T02:27:27.248Z,98096.16
2018-10-12T02:29:56.850Z,98102.09
2018-10-12T02:32:26.339Z,98106.62
2018-10-12T02:34:55.998Z,98117.02
2018-10-12T02:37:25.493Z,98115.05
2018-10-12T02:39:55.269Z,98118.25
2018-10-12T02:42:24.777Z,98127.30
2018-10-12T02:44:54.734Z,98128.02
2018-10-12T02:47:24.335Z,98124.00
2018-10-12T02:49:54.157Z,98127.77
2018-10-12T02:52:23.997Z,98134.98
2018-10-12T02:54:53.656Z,98139.56
2018-10-12T02:57:23.230Z,98144.51
2018-10-12T02:59:53.114Z,98146.67
2018-10-12T03:02:22.949Z,98156.24
2018-10-12T03:04:52.746Z,98157.77
2018-10-12T03:07:22.778Z,98154.33
2018-10-12T03:09:52.493Z,98161.02
2018-10-12T03:12:22.214Z,98158.69
2018-10-12T03:14:52.162Z,98158.99
2018-10-12T03:17:21.877Z,98160.61
2018-10-12T03:19:51.509Z,98165.16
2018-10-12T03:22:21.350Z,98163.69
2018-10-12T03:24:51.063Z,98178.09
2018-10-12T03:27:20.636Z,98183.67
2018-10-12T03:29:50.201Z,98177.92
2018-10-12T03:32:19.785Z,98178.14
2018-10-12T03:34:49.351Z,98179.87
2018-10-12T03:37:18.997Z,98191.42
2018-10-12T03:39:48.463Z,98193.02
2018-10-12T03:42:17.756Z,98189.80
2018-10-12T03:44:47.066Z,98190.64
2018-10-12T03:47:16.420Z,98187.80
2018-10-12T03:49:46.750Z,98194.83
2018-10-12T03:52:17.075Z,98192.87
2018-10-12T03:54:46.567Z,98196.14
2018-10-12T03:57:17.134Z,98194.78
2018-10-12T03:59:46.463Z,98202.80
2018-10-12T04:02:15.720Z,98205.06
2018-10-12T04:04:45.012Z,98201.55
2018-10-12T04:07:14.369Z,98205.97
2018-10-12T04:09:43.804Z,98207.70
2018-10-12T04:12:13.228Z,98212.02
2018-10-12T04:14:42.663Z,98209.13
2018-10-12T04:17:11.946Z,98216.80
2018-10-12T04:19:41.403Z,98221.77
2018-10-12T04:22:10.902Z,98225.05
2018-10-12T04:24:40.386Z,98238.21
2018-10-12T04:27:09.759Z,98240.30
2018-10-12T04:29:39.060Z,98244.05
2018-10-12T04:32:08.449Z,98237.16
2018-10-12T04:34:37.731Z,98238.57
2018-10-12T04:37:07.260Z,98238.88
2018-10-12T04:41:55.290Z,98237.45
2018-10-12T04:44:24.788Z,98249.16
2018-10-12T04:46:54.259Z,98250.99
2018-10-12T04:49:23.856Z,98252.18
2018-10-12T04:51:56.897Z,98253.39
2018-10-12T04:54:26.839Z,98260.53
2018-10-12T04:56:56.321Z,98265.14
2018-10-12T04:59:25.846Z,98267.81
2018-10-12T05:01:55.419Z,98273.66
2018-10-12T05:04:25.079Z,98268.50
2018-10-12T05:06:54.662Z,98278.10
2018-10-12T05:09:24.952Z,98278.39
2018-10-12T05:11:54.590Z,98288.21
2018-10-12T05:14:24.038Z,98282.89
2018-10-12T05:16:53.868Z,98284.65
2018-10-12T05:19:23.104Z,98288.78
2018-10-12T05:21:53.039Z,98293.86
2018-10-12T05:24:22.879Z,98296.23
2018-10-12T05:26:52.757Z,98302.40
2018-10-12T05:29:22.967Z,98302.86
2018-10-12T05:31:52.586Z,98307.94
2018-10-12T05:34:22.707Z,98313.42
2018-10-12T05:36:52.363Z,98321.43
2018-10-12T05:39:22.023Z,98322.63
2018-10-12T05:41:51.696Z,98324.22
2018-10-12T05:44:21.387Z,98323.23
2018-10-12T05:46:50.931Z,98333.09
2018-10-12T05:49:37.144Z,98331.91
2018-10-12T05:52:06.471Z,98327.75
2018-10-12T05:54:35.779Z,98336.05
2018-10-12T05:57:05.347Z,98338.97
2018-10-12T05:59:34.658Z,98337.61
2018-10-12T06:02:04.052Z,98343.56
2018-10-12T06:04:33.356Z,98348.08
2018-10-12T06:07:02.882Z,98352.44
2018-10-12T06:09:32.237Z,98356.22
2018-10-12T06:12:01.470Z,98355.92
2018-10-12T06:14:30.766Z,98360.81
2018-10-12T06:17:00.148Z,98358.35
2018-10-12T06:19:29.440Z,98355.92
2018-10-12T06:21:58.765Z,98350.42
2018-10-12T06:24:28.322Z,98361.36
2018-10-12T06:26:57.746Z,98370.98
2018-10-12T06:29:27.276Z,98376.43
2018-10-12T06:31:56.678Z,98377.14
2018-10-12T06:34:26.248Z,98391.70
2018-10-12T06:36:55.894Z,98388.64
2018-10-12T06:39:25.430Z,98396.54
2018-10-12T06:41:55.078Z,98394.58
2018-10-12T06:44:24.693Z,98389.66
2018-10-12T06:46:54.255Z,98391.93
2018-10-12T06:49:23.903Z,98397.20
2018-10-12T06:51:53.339Z,98395.55
2018-10-12T06:54:22.908Z,98395.39
2018-10-12T06:56:52.426Z,98402.89
2018-10-12T06:59:22.072Z,98412.83
2018-10-12T07:01:51.649Z,98411.85
2018-10-12T07:04:21.186Z,98420.16
2018-10-12T07:06:50.830Z,98428.86
2018-10-12T07:09:20.486Z,98425.16
2018-10-12T07:11:49.890Z,98435.40
2018-10-12T07:14:19.217Z,98437.80
2018-10-12T07:16:49.049Z,98437.27
2018-10-12T07:19:19.349Z,98443.58
2018-10-12T07:21:48.696Z,98442.52
2018-10-12T07:24:18.183Z,98447.13
2018-10-12T07:26:47.522Z,98445.23
2018-10-12T07:29:16.897Z,98443.12
2018-10-12T07:31:46.195Z,98444.21
2018-10-12T07:34:15.651Z,98438.33
2018-10-12T07:36:44.989Z,98445.90
2018-10-12T07:39:14.663Z,98438.63
2018-10-12T07:41:43.615Z,98444.77
2018-10-12T07:44:12.935Z,98454.95
2018-10-12T07:46:42.346Z,98456.55
2018-10-12T07:49:11.750Z,98464.02
2018-10-12T07:51:41.271Z,98468.56
2018-10-12T07:54:10.632Z,98465.23
2018-10-12T07:56:39.934Z,98464.85
2018-10-12T07:59:09.250Z,98461.86
2018-10-12T08:01:38.514Z,98469.14
2018-10-12T08:04:07.864Z,98472.59
2018-10-12T08:06:37.242Z,98467.56
2018-10-12T08:09:08.558Z,98469.26
2018-10-12T08:11:38.291Z,98472.23
2018-10-12T08:14:07.709Z,98458.28
2018-10-12T08:16:36.978Z,98459.73
2018-10-12T08:19:06.760Z,98458.14
2018-10-12T08:21:36.030Z,98456.09
2018-10-12T08:24:05.312Z,98459.45
2018-10-12T08:26:34.565Z,98452.78
2018-10-12T08:29:03.927Z,98461.77
2018-10-12T08:31:33.383Z,98463.27
2018-10-12T08:34:02.635Z,98459.33
2018-10-12T08:36:32.013Z,98456.74
2018-10-12T08:39:01.214Z,98464.48
2018-10-12T08:41:30.474Z,98462.37
2018-10-12T08:43:59.803Z,98461.38
2018-10-12T08:46:29.213Z,98464.50
2018-10-12T08:48:58.512Z,98456.34
2018-10-12T08:51:28.000Z,98454.65
2018-10-12T08:53:57.301Z,98460.53
2018-10-12T08:56:26.840Z,98464.70
2018-10-12T08:58:56.324Z,98467.06
2018-10-12T09:01:25.759Z,98475.42
2018-10-12T09:03:55.370Z,98476.88
2018-10-12T09:06:24.920Z,98477.14
2018-10-12T09:08:54.607Z,98475.08
2018-10-12T09:11:24.219Z,98479.85
2018-10-12T09:13:53.667Z,98483.52
2018-10-12T09:16:23.345Z,98478.79
2018-10-12T09:18:52.832Z,98486.57
2018-10-12T09:21:22.411Z,98492.68
2018-10-12T09:23:52.056Z,98489.19
2018-10-12T09:26:21.642Z,98483.45
2018-10-12T09:28:51.079Z,98482.20
2018-10-12T09:31:20.680Z,98480.72
2018-10-12T09:33:50.251Z,98473.86
2018-10-12T09:36:19.784Z,98478.11
2018-10-12T09:38:49.189Z,98475.91
2018-10-12T09:41:18.655Z,98480.36
2018-10-12T09:43:48.239Z,98480.58
2018-10-12T09:46:17.551Z,98483.30
2018-10-12T09:48:46.918Z,98481.26
2018-10-12T09:51:16.305Z,98476.94
2018-10-12T09:53:45.679Z,98478.24
2018-10-12T09:56:14.983Z,98483.55
2018-10-12T09:58:44.517Z,98483.13
2018-10-12T10:01:19.047Z,98488.96
2018-10-12T10:03:53.584Z,98488.72
2018-10-12T10:06:23.382Z,98491.31
2018-10-12T10:08:53.068Z,98487.86
2018-10-12T10:11:22.531Z,98487.27
2018-10-12T10:13:52.653Z,98483.02
2018-10-12T10:16:22.287Z,98484.46
2018-10-12T10:18:51.931Z,98490.95
2018-10-12T10:21:21.766Z,98476.73
2018-10-12T10:23:51.169Z,98476.19
2018-10-12T10:26:20.688Z,98476.69
2018-10-12T10:28:50.646Z,98479.71
2018-10-12T10:31:20.334Z,98481.95
2018-10-12T10:33:49.913Z,98484.72
2018-10-12T10:36:19.442Z,98488.33
2018-10-12T10:38:49.107Z,98483.45
2018-10-12T10:41:18.831Z,98480.09
2018-10-12T10:43:48.184Z,98480.78
2018-10-12T10:46:17.593Z,98486.03
2018-10-12T10:48:47.128Z,98476.99
2018-10-12T10:51:16.708Z,98473.77
2018-10-12T10:53:46.163Z,98466.74
2018-10-12T10:56:15.435Z,98469.48
2018-10-12T10:58:44.737Z,98471.07
2018-10-12T11:01:14.205Z,98467.13
2018-10-12T11:03:43.719Z,98463.55
2018-10-12T11:06:13.140Z,98457.76
2018-10-12T11:08:42.747Z,98454.82
2018-10-12T11:11:12.294Z,98452.73
2018-10-12T11:13:41.734Z,98453.37
2018-10-12T11:16:11.577Z,98452.38
2018-10-12T11:18:41.208Z,98446.47
2018-10-12T11:21:10.824Z,98448.80
2018-10-12T11:23:40.197Z,98446.08
2018-10-12T11:26:09.579Z,98440.08
2018-10-12T11:28:38.915Z,98438.05
2018-10-12T11:31:08.702Z,98438.08
2018-10-12T11:33:37.997Z,98437.69
2018-10-12T11:36:07.427Z,98436.59
2018-10-12T11:38:36.803Z,98436.55
2018-10-12T11:41:06.764Z,98432.63
2018-10-12T11:43:37.462Z,98431.82
2018-10-12T11:46:07.015Z,98434.86
2018-10-12T11:48:36.316Z,98428.09
2018-10-12T11:51:05.696Z,98424.68
2018-10-12T11:53:35.164Z,98422.76
2018-10-12T11:56:04.591Z,98423.09
2018-10-12T11:58:33.927Z,98420.27
2018-10-12T12:01:03.354Z,98415.70
2018-10-12T12:03:33.213Z,98414.45
2018-10-12T12:06:02.530Z,98412.61
2018-10-12T12:08:35.012Z,98414.61
2018-10-12T12:11:04.718Z,98407.63
2018-10-12T12:13:34.232Z,98404.91
2018-10-12T12:16:03.519Z,98407.87
2018-10-12T12:18:32.824Z,98414.93
2018-10-12T12:21:02.120Z,98407.58
2018-10-12T12:23:31.426Z,98407.91
2018-10-12T12:26:01.308Z,98414.59
2018-10-12T12:28:30.603Z,98414.13
2018-10-12T12:31:00.030Z,98410.25
2018-10-12T12:33:29.468Z,98406.86
2018-10-12T12:35:58.885Z,98407.48
2018-10-12T12:38:28.058Z,98398.95
2018-10-12T12:40:57.450Z,98402.52
2018-10-12T12:43:26.911Z,98401.30
2018-10-12T12:45:56.480Z,98400.08
2018-10-12T12:48:26.312Z,98404.03
2018-10-12T12:50:55.578Z,98396.45
2018-10-12T12:53:25.159Z,98398.93
2018-10-12T12:55:54.761Z,98395.02
2018-10-12T12:58:24.616Z,98394.16
2018-10-12T13:00:54.347Z,98396.69
2018-10-12T13:03:23.944Z,98388.70
2018-10-12T13:05:53.679Z,98388.23
2018-10-12T13:08:23.499Z,98392.50
2018-10-12T13:10:53.262Z,98394.70
2018-10-12T13:13:22.984Z,98392.55
2018-10-12T13:15:52.701Z,98393.05
2018-10-12T13:18:22.277Z,98392.91
2018-10-12T13:20:52.114Z,98393.39
2018-10-12T13:23:21.991Z,98392.41
2018-10-12T13:25:51.694Z,98396.25
2018-10-12T13:28:21.963Z,98395.08
2018-10-12T13:30:51.655Z,98401.05
2018-10-12T13:33:21.273Z,98403.20
2018-10-12T13:35:51.075Z,98398.50
2018-10-12T13:38:20.675Z,98403.82
2018-10-12T13:40:50.664Z,98408.92
2018-10-12T13:43:20.298Z,98405.50
2018-10-12T13:45:49.671Z,98403.84
2018-10-12T13:48:19.533Z,98401.95
2018-10-12T13:50:49.018Z,98399.14
2018-10-12T13:53:18.437Z,98405.47
2018-10-12T13:55:47.806Z,98408.69
2018-10-12T13:58:17.410Z,98408.11
2018-10-12T14:00:46.725Z,98403.03
2018-10-12T14:03:16.156Z,98397.56
2018-10-12T14:05:45.523Z,98397.95
2018-10-12T14:08:15.092Z,98403.97
2018-10-12T14:10:44.528Z,98399.53
2018-10-12T14:13:13.891Z,98396.91
2018-10-12T14:15:43.249Z,98393.96
2018-10-12T14:18:12.795Z,98393.47
2018-10-12T14:20:42.038Z,98391.34
2018-10-12T14:23:11.639Z,98385.31
2018-10-12T14:25:40.947Z,98391.33
2018-10-12T14:28:10.423Z,98386.49
2018-10-12T14:30:39.827Z,98383.05
2018-10-12T14:33:09.268Z,98386.80
2018-10-12T14:35:38.672Z,98386.41
2018-10-12T14:38:07.990Z,98387.30
2018-10-12T14:40:38.284Z,98384.19
2018-10-12T14:43:07.633Z,98379.46
2018-10-12T14:45:36.918Z,98386.22
2018-10-12T14:48:06.286Z,98388.51
2018-10-12T14:50:35.629Z,98387.57
2018-10-12T14:53:05.029Z,98387.98
2018-10-12T14:55:34.276Z,98386.95
2018-10-12T14:58:04.629Z,98395.48
2018-10-12T15:00:33.933Z,98392.69
2018-10-12T15:03:03.602Z,98394.10
2018-10-12T15:05:32.937Z,98396.28
2018-10-12T15:08:02.369Z,98397.34
2018-10-12T15:10:31.708Z,98393.50
2018-10-12T15:13:01.241Z,98403.03
2018-10-12T15:15:30.562Z,98401.27
2018-10-12T15:18:00.273Z,98405.91
2018-10-12T15:20:29.578Z,98404.80
2018-10-12T15:22:59.054Z,98403.59
2018-10-12T15:25:28.379Z,98406.80
2018-10-12T15:27:57.681Z,98403.68
2018-10-12T15:30:27.074Z,98400.42
2018-10-12T15:32:56.487Z,98401.22
2018-10-12T15:35:25.962Z,98404.31
2018-10-12T15:37:55.388Z,98398.70
2018-10-12T15:40:25.186Z,98403.64
2018-10-12T15:42:54.775Z,98409.72
2018-10-12T15:45:24.403Z,98409.94
2018-10-12T15:47:53.898Z,98401.80
2018-10-12T15:50:23.342Z,98396.92
2018-10-12T15:52:52.918Z,98404.63
2018-10-12T15:55:22.505Z,98404.67
2018-10-12T15:57:52.023Z,98403.94
2018-10-12T16:00:21.697Z,98404.65
2018-10-12T16:02:51.266Z,98408.97
2018-10-12T16:05:20.885Z,98406.27
2018-10-12T16:07:50.964Z,98400.39
2018-10-12T16:10:20.658Z,98405.17
2018-10-12T16:12:50.202Z,98403.44
2018-10-12T16:15:19.942Z,98407.06
2018-10-12T16:17:49.392Z,98407.09
2018-10-12T16:20:19.869Z,98412.32
2018-10-12T16:22:49.341Z,98412.34
2018-10-12T16:26:08.697Z,98411.13
2018-10-12T16:28:38.029Z,98416.55
2018-10-12T16:31:07.334Z,98407.41
2018-10-12T16:33:36.582Z,98419.14
2018-10-12T16:36:05.951Z,98409.20
2018-10-12T16:38:35.262Z,98414.70
2018-10-12T16:41:04.539Z,98408.41
2018-10-12T16:43:33.831Z,98413.58
2018-10-12T16:46:03.230Z,98419.20
2018-10-12T16:48:32.901Z,98426.11
2018-10-12T16:51:02.247Z,98424.03
2018-10-12T16:53:31.551Z,98430.70
2018-10-12T16:56:00.923Z,98429.50
2018-10-12T16:58:30.297Z,98425.59
2018-10-12T17:00:59.675Z,98433.98
2018-10-12T17:03:29.305Z,98431.25
2018-10-12T17:05:58.706Z,98439.28
2018-10-12T17:08:28.062Z,98439.39
2018-10-12T17:10:57.417Z,98438.88
2018-10-12T17:13:26.896Z,98438.44
2018-10-12T17:15:56.350Z,98442.82
2018-10-12T17:18:25.954Z,98442.88
2018-10-12T17:20:55.370Z,98439.44
2018-10-12T17:23:25.052Z,98448.17
2018-10-12T17:25:54.550Z,98445.28
2018-10-12T17:28:24.281Z,98447.75
2018-10-12T17:30:54.123Z,98450.75
2018-10-12T17:33:23.919Z,98454.00
2018-10-12T17:35:54.160Z,98456.22
2018-10-12T17:38:23.666Z,98454.06
2018-10-12T17:40:53.163Z,98461.09
2018-10-12T17:43:22.747Z,98457.86
2018-10-12T17:45:52.232Z,98461.89
2018-10-12T17:48:21.690Z,98461.08
2018-10-12T17:50:51.218Z,98467.56
2018-10-12T17:53:20.746Z,98465.93
2018-10-12T17:55:50.275Z,98464.59
2018-10-12T17:58:19.666Z,98473.16
2018-10-12T18:00:49.092Z,98469.17
2018-10-12T18:03:18.478Z,98477.02
2018-10-12T18:05:47.786Z,98471.91
2018-10-12T18:08:18.751Z,98472.17
2018-10-12T18:10:49.094Z,98479.98
2018-10-12T18:13:18.737Z,98480.49
2018-10-12T18:15:48.248Z,98478.63
2018-10-12T18:18:17.722Z,98482.67
2018-10-12T18:20:47.133Z,98490.17
2018-10-12T18:23:16.485Z,98487.71
2018-10-12T18:25:45.834Z,98489.39
2018-10-12T18:28:15.193Z,98488.33
2018-10-12T18:30:44.493Z,98492.64
2018-10-12T18:33:14.223Z,98485.10
2018-10-12T18:35:43.555Z,98480.27
2018-10-12T18:38:12.970Z,98487.54
2018-10-12T18:40:42.354Z,98490.23
2018-10-12T18:43:12.098Z,98489.95
2018-10-12T18:45:41.427Z,98486.70
2018-10-12T18:48:10.733Z,98480.52
2018-10-12T18:50:40.134Z,98479.19
2018-10-12T18:53:09.440Z,98479.47
2018-10-12T18:55:39.069Z,98482.15
2018-10-12T18:58:08.807Z,98481.88
2018-10-12T19:00:38.384Z,98486.19
2018-10-12T19:03:07.724Z,98487.77
2018-10-12T19:05:37.796Z,98494.80
2018-10-12T19:08:07.239Z,98497.77
2018-10-12T19:10:36.754Z,98499.40
2018-10-12T19:13:06.170Z,98500.20
2018-10-12T19:15:35.468Z,98505.60
2018-10-12T19:18:04.786Z,98508.02
2018-10-12T19:20:34.137Z,98506.41
2018-10-12T19:23:03.432Z,98511.52
2018-10-12T19:25:32.750Z,98512.30
2018-10-12T19:28:02.120Z,98517.41
2018-10-12T19:30:31.423Z,98516.03
2018-10-12T19:33:05.193Z,98523.78
2018-10-12T19:35:34.473Z,98519.43
2018-10-12T19:38:03.795Z,98523.44
2018-10-12T19:40:33.891Z,98525.05
2018-10-12T19:43:03.743Z,98526.64
2018-10-12T19:45:33.165Z,98529.87
2018-10-12T19:48:02.541Z,98532.20
2018-10-12T19:50:31.920Z,98532.39
2018-10-12T19:53:01.268Z,98535.33
2018-10-12T19:55:30.584Z,98537.09
2018-10-12T19:57:59.921Z,98538.95
2018-10-12T20:00:29.443Z,98547.45
2018-10-12T20:02:58.896Z,98546.36
2018-10-12T20:05:28.615Z,98543.92
2018-10-12T20:07:57.969Z,98543.63
2018-10-12T20:10:27.396Z,98547.41
2018-10-12T20:12:56.999Z,98548.23
2018-10-12T20:15:26.350Z,98550.52
2018-10-12T20:17:56.177Z,98551.09
2018-10-12T20:20:25.863Z,98554.20
2018-10-12T20:22:55.290Z,98553.38
2018-10-12T20:25:24.835Z,98558.22
2018-10-12T20:27:54.470Z,98557.12
2018-10-12T20:30:23.797Z,98563.53
2018-10-12T20:32:53.447Z,98561.85
2018-10-12T20:35:22.938Z,98564.28
2018-10-12T20:37:52.463Z,98569.66
2018-10-12T20:40:22.089Z,98565.59
2018-10-12T20:42:51.663Z,98565.82
2018-10-12T20:45:21.351Z,98569.06
2018-10-12T20:47:50.831Z,98567.15
2018-10-12T20:50:20.287Z,98569.48
2018-10-12T20:52:49.842Z,98570.05
2018-10-12T20:55:19.471Z,98565.92
2018-10-12T20:57:50.084Z,98557.41
2018-10-12T21:00:20.215Z,98557.70
2018-10-12T21:02:49.649Z,98558.16
2018-10-12T21:05:18.967Z,98552.69
2018-10-12T21:07:48.507Z,98557.81
2018-10-12T21:10:17.966Z,98559.84
2018-10-12T21:12:47.484Z,98556.28
2018-10-12T21:15:17.011Z,98561.27
2018-10-12T21:17:46.380Z,98564.66
2018-10-12T21:20:15.722Z,98562.75
2018-10-12T21:22:45.052Z,98560.37
2018-10-12T21:25:14.465Z,98561.45
2018-10-12T21:27:44.062Z,98567.26
2018-10-12T21:30:13.645Z,98567.22
2018-10-12T21:32:43.218Z,98568.81
2018-10-12T21:35:12.791Z,98568.00
2018-10-12T21:37:42.429Z,98564.80
2018-10-12T21:40:12.027Z,98565.02
2018-10-12T21:42:41.440Z,98572.84
2018-10-12T21:45:10.875Z,98574.66
2018-10-12T21:47:40.412Z,98575.36
2018-10-12T21:50:09.913Z,98572.90
2018-10-12T21:52:39.776Z,98574.41
2018-10-12T21:55:09.170Z,98563.66
2018-10-12T21:57:38.460Z,98568.77
2018-10-12T22:00:07.934Z,98566.47
2018-10-12T22:02:37.270Z,98557.02
2018-10-12T22:05:06.578Z,98556.23
2018-10-12T22:07:35.854Z,98559.49
2018-10-12T22:10:05.463Z,98557.86
2018-10-12T22:12:34.816Z,98557.27
2018-10-12T22:15:04.159Z,98563.05
2018-10-12T22:17:33.445Z,98556.15
2018-10-12T22:20:02.753Z,98556.12
2018-10-12T22:22:32.064Z,98556.11
2018-10-12T22:25:01.389Z,98552.47
2018-10-12T22:27:30.840Z,98551.34
2018-10-12T22:30:00.191Z,98542.77
2018-10-12T22:32:29.537Z,98547.55
2018-10-12T22:34:59.094Z,98545.37
2018-10-12T22:37:28.716Z,98547.00
2018-10-12T22:39:58.536Z,98545.05
2018-10-12T22:42:28.135Z,98539.34
2018-10-12T22:44:58.009Z,98539.03
2018-10-12T22:47:27.614Z,98536.88
2018-10-12T22:49:57.396Z,98532.58
2018-10-12T22:52:27.000Z,98534.47
2018-10-12T22:54:56.834Z,98530.41
2018-10-12T22:57:26.680Z,98532.47
2018-10-12T22:59:56.686Z,98527.12
2018-10-12T23:02:26.548Z,98527.83
2018-10-12T23:04:56.436Z,98527.55
2018-10-12T23:07:26.344Z,98521.23
2018-10-12T23:09:56.231Z,98515.24
2018-10-12T23:12:26.061Z,98517.25
2018-10-12T23:14:55.915Z,98520.95
2018-10-12T23:17:25.658Z,98523.63
2018-10-12T23:19:55.491Z,98517.06
2018-10-12T23:22:25.449Z,98510.87
2018-10-12T23:24:55.473Z,98513.36
2018-10-12T23:27:25.389Z,98515.11
2018-10-12T23:29:55.397Z,98515.80
2018-10-12T23:32:25.262Z,98515.39
2018-10-12T23:34:55.176Z,98514.52
2018-10-12T23:37:25.067Z,98516.49
2018-10-12T23:39:55.219Z,98513.20
2018-10-12T23:42:25.336Z,98510.13
2018-10-12T23:44:55.595Z,98515.09
2018-10-12T23:47:25.572Z,98508.90
2018-10-12T23:49:55.282Z,98506.29
2018-10-12T23:52:24.993Z,98509.52
2018-10-12T23:54:54.869Z,98511.14
2018-10-12T23:57:24.788Z,98504.28
2018-10-12T23:59:54.740Z,98506.83
